createdAt,value
2023-08-24T00:00:00.083Z,12.32
2023-08-24T00:03:04.204Z,12.98
2023-08-24T00:06:07.300Z,11.93
2023-08-24T00:09:09.745Z,12.52
2023-08-24T00:12:11.807Z,12.90
2023-08-24T00:15:14.360Z,11.57
2023-08-24T00:18:16.432Z,12.82
2023-08-24T00:21:20.699Z,12.63
2023-08-24T00:24:22.927Z,12.55
2023-08-24T00:27:24.966Z,12.48
2023-08-24T00:30:27.414Z,11.70
2023-08-24T00:33:29.514Z,12.52
2023-08-24T00:36:31.691Z,12.83
2023-08-24T00:39:34.156Z,12.40
2023-08-24T00:42:40.633Z,14.13
2023-08-24T00:45:42.747Z,13.40
2023-08-24T00:48:44.773Z,12.88
2023-08-24T00:51:47.271Z,13.63
2023-08-24T00:54:49.979Z,13.90
2023-08-24T00:57:52.688Z,13.88
2023-08-24T01:00:56.610Z,14.32
2023-08-24T01:03:58.873Z,13.27
2023-08-24T01:07:00.948Z,13.73
2023-08-24T01:10:04.558Z,13.00
2023-08-24T01:13:10.955Z,13.00
2023-08-24T01:16:17.420Z,12.77
2023-08-24T01:19:25.934Z,13.07
2023-08-24T01:22:27.935Z,12.63
2023-08-24T01:25:32.960Z,14.02
2023-08-24T01:28:35.545Z,13.50
2023-08-24T01:31:37.853Z,13.35
2023-08-24T01:34:40.225Z,13.65
2023-08-24T01:37:43.219Z,12.77
2023-08-24T01:40:54.910Z,12.90
2023-08-24T01:43:58.456Z,12.85
2023-08-24T01:47:03.355Z,12.38
2023-08-24T01:50:06.136Z,14.00
2023-08-24T01:53:09.103Z,12.70
2023-08-24T01:56:14.472Z,12.25
2023-08-24T01:59:17.747Z,13.00
2023-08-24T02:02:19.837Z,12.45
2023-08-24T02:05:22.086Z,13.48
2023-08-24T02:08:27.546Z,13.97
2023-08-24T02:11:29.678Z,13.07
2023-08-24T02:14:31.853Z,13.38
2023-08-24T02:17:34.893Z,12.55
2023-08-24T02:20:37.660Z,12.55
2023-08-24T02:23:40.050Z,11.93
2023-08-24T02:26:42.130Z,13.00
2023-08-24T02:29:45.210Z,11.63
2023-08-24T02:32:50.903Z,12.20
2023-08-24T02:35:53.005Z,12.27
2023-08-24T02:38:55.414Z,12.07
2023-08-24T02:41:57.462Z,12.07
2023-08-24T02:44:59.631Z,11.75
2023-08-24T02:48:02.241Z,12.48
2023-08-24T02:51:05.541Z,12.25
2023-08-24T02:54:07.617Z,12.83
2023-08-24T02:57:10.007Z,11.30
2023-08-24T03:00:14.792Z,13.00
2023-08-24T03:03:16.904Z,12.85
2023-08-24T03:06:20.238Z,12.90
2023-08-24T03:09:22.328Z,12.80
2023-08-24T03:12:24.400Z,13.60
2023-08-24T03:15:26.504Z,12.48
2023-08-24T03:18:28.876Z,12.60
2023-08-24T03:21:31.609Z,12.57
2023-08-24T03:24:33.675Z,13.83
2023-08-24T03:27:35.769Z,12.98
2023-08-24T03:30:38.583Z,13.70
2023-08-24T03:33:40.701Z,13.85
2023-08-24T03:36:42.806Z,14.60
2023-08-24T03:39:44.882Z,14.00
2023-08-24T03:42:46.909Z,13.63
2023-08-24T03:45:49.368Z,13.48
2023-08-24T03:48:51.526Z,14.10
2023-08-24T03:51:53.641Z,13.73
2023-08-24T03:54:55.724Z,12.83
2023-08-24T03:57:58.238Z,12.68
2023-08-24T04:01:01.766Z,13.90
2023-08-24T04:04:04.135Z,13.05
2023-08-24T04:07:06.479Z,14.23
2023-08-24T04:10:08.959Z,13.43
2023-08-24T04:13:11.224Z,12.88
2023-08-24T04:16:13.421Z,14.65
2023-08-24T04:19:15.604Z,13.90
2023-08-24T04:22:17.673Z,13.55
2023-08-24T04:25:19.754Z,12.90
2023-08-24T04:28:21.959Z,14.60
2023-08-24T04:31:24.049Z,14.40
2023-08-24T04:34:26.313Z,13.13
2023-08-24T04:37:28.364Z,13.65
2023-08-24T04:40:30.557Z,13.43
2023-08-24T04:43:33.570Z,14.13
2023-08-24T04:46:35.615Z,14.80
2023-08-24T04:49:38.198Z,14.10
2023-08-24T04:52:40.279Z,14.27
2023-08-24T04:55:42.641Z,14.57
2023-08-24T04:58:53.096Z,14.48
2023-08-24T05:01:55.164Z,13.50
2023-08-24T05:04:57.230Z,14.40
2023-08-24T05:07:59.844Z,14.05
2023-08-24T05:11:01.896Z,13.67
2023-08-24T05:14:03.941Z,14.93
2023-08-24T05:17:06.137Z,13.73
2023-08-24T05:20:09.501Z,13.75
2023-08-24T05:23:11.581Z,13.55
2023-08-24T05:26:13.713Z,12.23
2023-08-24T05:29:15.806Z,13.13
2023-08-24T05:32:17.850Z,12.60
2023-08-24T05:35:19.978Z,13.05
2023-08-24T05:38:22.088Z,14.00
2023-08-24T05:41:24.211Z,13.60
2023-08-24T05:44:26.328Z,13.00
2023-08-24T05:47:28.501Z,12.93
2023-08-24T05:50:30.681Z,13.50
2023-08-24T05:53:37.681Z,13.43
2023-08-24T05:56:41.968Z,11.97
2023-08-24T05:59:44.855Z,13.02
2023-08-24T06:02:47.309Z,13.32
2023-08-24T06:05:49.395Z,13.02
2023-08-24T06:08:51.568Z,12.68
2023-08-24T06:11:53.791Z,13.90
2023-08-24T06:14:57.851Z,13.10
2023-08-24T06:18:01.438Z,13.93
2023-08-24T06:21:03.636Z,13.73
2023-08-24T06:24:05.835Z,13.68
2023-08-24T06:27:08.197Z,11.83
2023-08-24T06:30:10.556Z,12.80
2023-08-24T06:33:12.734Z,12.35
2023-08-24T06:36:15.129Z,11.63
2023-08-24T06:39:17.360Z,12.43
2023-08-24T06:42:19.533Z,13.63
2023-08-24T06:45:22.693Z,12.63
2023-08-24T06:48:24.890Z,18.42
2023-08-24T06:51:27.849Z,13.10
2023-08-24T06:54:29.970Z,12.52
2023-08-24T06:57:32.066Z,12.50
2023-08-24T07:00:34.815Z,12.65
2023-08-24T07:03:36.926Z,12.60
2023-08-24T07:06:39.190Z,12.63
2023-08-24T07:09:41.313Z,12.90
2023-08-24T07:12:43.408Z,12.13
2023-08-24T07:15:46.720Z,11.73
2023-08-24T07:18:49.332Z,12.57
2023-08-24T07:21:51.436Z,11.25
2023-08-24T07:24:53.824Z,11.70
2023-08-24T07:28:00.008Z,13.53
2023-08-24T07:31:11.954Z,13.15
2023-08-24T07:34:14.243Z,13.02
2023-08-24T07:37:16.597Z,11.85
2023-08-24T07:40:18.987Z,12.52
2023-08-24T07:43:21.186Z,11.50
2023-08-24T07:46:23.518Z,11.70
2023-08-24T07:49:25.777Z,11.73
2023-08-24T07:52:29.936Z,11.25
2023-08-24T07:55:32.020Z,11.48
2023-08-24T07:58:34.195Z,11.23
2023-08-24T08:01:36.352Z,11.93
2023-08-24T08:04:38.770Z,9.75
2023-08-24T08:07:41.112Z,10.63
2023-08-24T08:10:43.717Z,10.95
2023-08-24T08:13:46.000Z,11.17
2023-08-24T08:16:48.436Z,10.35
2023-08-24T08:19:50.519Z,9.73
2023-08-24T08:22:52.884Z,9.95
2023-08-24T08:25:55.576Z,10.20
2023-08-24T08:28:57.659Z,10.33
2023-08-24T08:31:59.908Z,9.80
2023-08-24T08:35:03.405Z,10.65
2023-08-24T08:38:06.978Z,12.25
2023-08-24T08:41:10.112Z,10.70
2023-08-24T08:44:14.312Z,9.77
2023-08-24T08:47:17.327Z,9.70
2023-08-24T08:50:19.654Z,9.90
2023-08-24T08:53:22.630Z,17.13
2023-08-24T08:56:24.895Z,12.63
2023-08-24T08:59:30.424Z,9.20
2023-08-24T09:02:33.528Z,9.00
2023-08-24T09:05:38.391Z,10.07
2023-08-24T09:08:40.480Z,9.32
2023-08-24T09:11:43.466Z,9.10
2023-08-24T09:14:45.856Z,8.07
2023-08-24T09:17:50.495Z,8.35
2023-08-24T09:20:52.869Z,7.75
2023-08-24T09:23:56.752Z,9.13
2023-08-24T09:26:59.150Z,9.18
2023-08-24T09:30:01.732Z,8.40
2023-08-24T09:33:14.245Z,8.85
2023-08-24T09:36:16.473Z,9.05
2023-08-24T09:39:19.054Z,9.38
2023-08-24T09:42:27.762Z,8.55
2023-08-24T09:45:33.412Z,8.93
2023-08-24T09:48:35.989Z,8.68
2023-08-24T09:51:41.644Z,8.60
2023-08-24T09:54:44.215Z,7.43
2023-08-24T09:57:47.063Z,9.82
2023-08-24T10:00:50.208Z,7.40
2023-08-24T10:03:53.956Z,7.63
2023-08-24T10:07:17.249Z,8.05
2023-08-24T10:10:20.588Z,7.22
2023-08-24T10:13:40.424Z,7.45
2023-08-24T10:16:43.936Z,8.90
2023-08-24T10:19:47.543Z,6.78
2023-08-24T10:22:50.507Z,7.65
2023-08-24T10:25:54.006Z,7.28
2023-08-24T10:28:56.722Z,7.25
2023-08-24T10:31:59.609Z,7.13
2023-08-24T10:35:01.938Z,7.57
2023-08-24T10:38:04.408Z,6.78
2023-08-24T10:41:06.846Z,5.80
2023-08-24T10:44:17.380Z,6.55
2023-08-24T10:47:20.402Z,6.17
2023-08-24T10:50:23.226Z,6.47
2023-08-24T10:53:51.321Z,7.10
2023-08-24T10:56:55.788Z,8.23
2023-08-24T11:00:01.491Z,6.65
2023-08-24T11:03:03.857Z,7.40
2023-08-24T11:06:18.714Z,6.53
2023-08-24T11:09:21.073Z,6.18
2023-08-24T11:12:23.163Z,6.72
2023-08-24T11:15:41.682Z,6.97
2023-08-24T11:18:44.081Z,6.63
2023-08-24T11:21:46.754Z,7.50
2023-08-24T11:24:48.848Z,6.82
2023-08-24T11:27:51.500Z,6.57
2023-08-24T11:30:53.928Z,7.00
2023-08-24T11:33:58.922Z,6.10
2023-08-24T11:37:01.296Z,5.90
2023-08-24T11:40:04.468Z,6.63
2023-08-24T11:43:06.937Z,6.30
2023-08-24T11:46:09.089Z,5.80
2023-08-24T11:49:11.221Z,6.00
2023-08-24T11:52:17.231Z,6.50
2023-08-24T11:55:20.041Z,6.28
2023-08-24T11:58:22.154Z,5.95
2023-08-24T12:01:25.918Z,5.85
2023-08-24T12:04:28.242Z,5.83
2023-08-24T12:07:32.536Z,5.82
2023-08-24T12:10:36.904Z,6.55
2023-08-24T12:13:38.994Z,6.38
2023-08-24T12:16:43.075Z,6.13
2023-08-24T12:19:45.904Z,5.73
2023-08-24T12:22:55.047Z,6.53
2023-08-24T12:25:57.071Z,5.45
2023-08-24T12:29:04.180Z,5.40
2023-08-24T12:32:06.395Z,5.10
2023-08-24T12:35:09.625Z,4.33
2023-08-24T12:38:11.670Z,4.60
2023-08-24T12:41:13.758Z,5.18
2023-08-24T12:44:16.342Z,4.22
2023-08-24T12:47:18.497Z,4.38
2023-08-24T12:50:20.524Z,4.87
2023-08-24T12:53:22.556Z,4.50
2023-08-24T12:56:24.590Z,3.95
2023-08-24T12:59:26.584Z,4.30
2023-08-24T13:02:37.374Z,4.63
2023-08-24T13:05:40.675Z,4.10
2023-08-24T13:08:42.692Z,4.80
2023-08-24T13:11:44.763Z,4.75
2023-08-24T13:14:46.866Z,4.80
2023-08-24T13:17:49.054Z,4.25
2023-08-24T13:20:51.221Z,4.10
2023-08-24T13:23:54.170Z,4.28
2023-08-24T13:26:56.711Z,3.70
2023-08-24T13:30:01.788Z,4.25
2023-08-24T13:33:04.031Z,4.50
2023-08-24T13:36:06.267Z,4.47
2023-08-24T13:39:08.447Z,3.95
2023-08-24T13:42:10.526Z,4.68
2023-08-24T13:45:12.602Z,4.50
2023-08-24T13:48:14.703Z,5.00
2023-08-24T13:51:18.198Z,5.33
2023-08-24T13:54:21.821Z,4.50
2023-08-24T13:57:23.977Z,4.72
2023-08-24T14:00:26.677Z,4.95
2023-08-24T14:03:28.849Z,4.70
2023-08-24T14:06:35.720Z,4.43
2023-08-24T14:09:37.766Z,4.38
2023-08-24T14:12:39.854Z,4.53
2023-08-24T14:15:42.146Z,4.63
2023-08-24T14:18:44.321Z,4.22
2023-08-24T14:21:46.396Z,4.43
2023-08-24T14:24:48.415Z,4.15
2023-08-24T14:27:58.514Z,4.38
2023-08-24T14:31:07.228Z,4.25
2023-08-24T14:34:09.398Z,4.53
2023-08-24T14:37:11.544Z,4.63
2023-08-24T14:40:13.674Z,4.45
2023-08-24T14:43:16.575Z,4.32
2023-08-24T14:46:18.944Z,4.10
2023-08-24T14:49:21.069Z,4.03
2023-08-24T14:52:23.292Z,4.13
2023-08-24T14:55:25.323Z,4.22
2023-08-24T14:58:27.988Z,4.20
2023-08-24T15:01:30.140Z,4.60
2023-08-24T15:04:32.316Z,5.10
2023-08-24T15:07:34.366Z,4.73
2023-08-24T15:10:36.394Z,4.70
2023-08-24T15:13:39.265Z,4.88
2023-08-24T15:16:41.399Z,4.15
2023-08-24T15:19:43.493Z,4.45
2023-08-24T15:22:45.561Z,4.77
2023-08-24T15:25:47.597Z,4.72
2023-08-24T15:29:10.924Z,4.47
2023-08-24T15:32:13.777Z,4.07
2023-08-24T15:35:15.856Z,4.45
2023-08-24T15:38:17.885Z,4.60
2023-08-24T15:41:19.884Z,4.35
2023-08-24T15:44:21.966Z,4.82
2023-08-24T15:47:23.990Z,4.80
2023-08-24T15:50:26.290Z,4.80
2023-08-24T15:53:28.311Z,4.63
2023-08-24T15:56:32.011Z,4.30
2023-08-24T15:59:34.369Z,5.25
2023-08-24T16:02:36.456Z,4.93
2023-08-24T16:05:38.699Z,5.18
2023-08-24T16:08:40.802Z,4.47
2023-08-24T16:11:43.077Z,4.78
2023-08-24T16:14:45.137Z,4.75
2023-08-24T16:17:47.711Z,4.57
2023-08-24T16:20:50.123Z,4.72
2023-08-24T16:23:53.196Z,4.90
2023-08-24T16:26:55.742Z,4.82
2023-08-24T16:29:57.828Z,4.60
2023-08-24T16:32:59.880Z,4.82
2023-08-24T16:36:02.099Z,4.75
2023-08-24T16:39:04.220Z,4.30
2023-08-24T16:42:06.339Z,4.20
2023-08-24T16:45:08.915Z,4.18
2023-08-24T16:48:11.229Z,4.97
2023-08-24T16:51:13.575Z,5.05
2023-08-24T16:54:15.636Z,4.70
2023-08-24T16:57:17.767Z,5.13
2023-08-24T17:00:19.981Z,4.93
2023-08-24T17:03:22.060Z,5.03
2023-08-24T17:06:24.206Z,4.82
2023-08-24T17:09:26.276Z,4.57
2023-08-24T17:12:28.301Z,4.90
2023-08-24T17:15:30.521Z,5.22
2023-08-24T17:18:33.977Z,5.30
2023-08-24T17:21:37.005Z,4.85
2023-08-24T17:24:39.067Z,5.10
2023-08-24T17:27:41.446Z,5.53
2023-08-24T17:30:48.125Z,5.25
2023-08-24T17:33:50.259Z,5.43
2023-08-24T17:36:52.405Z,4.85
2023-08-24T17:39:54.401Z,4.57
2023-08-24T17:42:56.447Z,5.20
2023-08-24T17:45:58.603Z,5.40
2023-08-24T17:49:00.873Z,5.03
2023-08-24T17:52:04.268Z,5.28
2023-08-24T17:55:06.767Z,4.97
2023-08-24T17:58:09.109Z,5.03
2023-08-24T18:01:11.731Z,4.93
2023-08-24T18:04:13.776Z,5.00
2023-08-24T18:07:16.012Z,5.22
2023-08-24T18:10:18.189Z,5.57
2023-08-24T18:13:20.205Z,5.40
2023-08-24T18:16:23.142Z,5.75
2023-08-24T18:19:25.182Z,5.45
2023-08-24T18:22:27.294Z,4.68
2023-08-24T18:25:29.545Z,5.03
2023-08-24T18:28:31.631Z,5.50
2023-08-24T18:31:33.985Z,5.68
2023-08-24T18:34:36.053Z,5.68
2023-08-24T18:37:38.118Z,5.80
2023-08-24T18:40:40.531Z,5.87
2023-08-24T18:43:42.628Z,5.78
2023-08-24T18:46:44.711Z,5.45
2023-08-24T18:49:46.802Z,6.10
2023-08-24T18:52:48.928Z,5.63
2023-08-24T18:55:55.303Z,7.07
2023-08-24T18:58:57.332Z,6.07
2023-08-24T19:01:59.491Z,6.90
2023-08-24T19:05:01.496Z,6.90
2023-08-24T19:08:03.637Z,6.88
2023-08-24T19:11:05.759Z,7.00
2023-08-24T19:14:08.076Z,7.32
2023-08-24T19:17:10.147Z,8.35
2023-08-24T19:20:12.324Z,8.60
2023-08-24T19:23:14.372Z,8.80
2023-08-24T19:26:16.480Z,9.10
2023-08-24T19:29:18.645Z,7.68
2023-08-24T19:32:20.829Z,8.27
2023-08-24T19:35:22.885Z,7.65
2023-08-24T19:38:24.988Z,8.43
2023-08-24T19:41:27.084Z,7.57
2023-08-24T19:44:29.224Z,10.80
2023-08-24T19:47:31.344Z,9.43
2023-08-24T19:50:33.835Z,8.68
2023-08-24T19:53:35.962Z,8.43
2023-08-24T19:56:38.100Z,7.60
2023-08-24T19:59:40.145Z,7.82
2023-08-24T20:02:42.265Z,8.07
2023-08-24T20:05:44.419Z,7.18
2023-08-24T20:08:46.700Z,7.50
2023-08-24T20:11:49.983Z,7.60
2023-08-24T20:14:52.094Z,7.38
2023-08-24T20:17:54.544Z,7.55
2023-08-24T20:20:57.089Z,7.45
2023-08-24T20:23:59.116Z,8.65
2023-08-24T20:27:01.690Z,8.17
2023-08-24T20:30:04.793Z,7.38
2023-08-24T20:33:06.920Z,7.38
2023-08-24T20:36:09.049Z,6.43
2023-08-24T20:39:11.292Z,7.00
2023-08-24T20:42:17.492Z,6.97
2023-08-24T20:45:19.643Z,6.80
2023-08-24T20:48:21.738Z,6.47
2023-08-24T20:51:25.619Z,6.32
2023-08-24T20:54:28.756Z,6.25
2023-08-24T20:57:30.866Z,6.10
2023-08-24T21:00:33.243Z,6.13
2023-08-24T21:03:35.963Z,5.90
2023-08-24T21:06:38.102Z,5.28
2023-08-24T21:09:40.242Z,6.20
2023-08-24T21:12:42.328Z,5.90
2023-08-24T21:15:47.410Z,5.93
2023-08-24T21:18:49.717Z,7.07
2023-08-24T21:21:51.773Z,6.35
2023-08-24T21:24:53.893Z,6.05
2023-08-24T21:27:56.433Z,5.50
2023-08-24T21:31:02.847Z,6.28
2023-08-24T21:34:04.994Z,7.47
2023-08-24T21:37:07.016Z,6.72
2023-08-24T21:40:09.339Z,6.15
2023-08-24T21:43:11.430Z,6.47
2023-08-24T21:46:13.628Z,6.60
2023-08-24T21:49:15.630Z,7.15
2023-08-24T21:52:18.115Z,7.65
2023-08-24T21:55:20.160Z,6.82
2023-08-24T21:58:22.223Z,6.87
2023-08-24T22:01:24.313Z,6.35
2023-08-24T22:04:26.602Z,6.85
2023-08-24T22:07:28.646Z,6.95
2023-08-24T22:10:30.683Z,6.78
2023-08-24T22:13:32.782Z,7.20
2023-08-24T22:16:35.096Z,6.30
2023-08-24T22:19:37.267Z,7.05
2023-08-24T22:22:39.512Z,7.00
2023-08-24T22:25:41.659Z,6.63
2023-08-24T22:28:43.856Z,6.50
2023-08-24T22:31:45.925Z,6.88
2023-08-24T22:34:48.195Z,7.10
2023-08-24T22:37:50.304Z,6.97
2023-08-24T22:40:52.381Z,6.45
2023-08-24T22:43:54.469Z,6.60
2023-08-24T22:46:56.564Z,6.55
2023-08-24T22:49:59.007Z,6.53
2023-08-24T22:53:01.863Z,7.30
2023-08-24T22:56:04.261Z,6.93
2023-08-24T22:59:06.369Z,6.90
2023-08-24T23:02:08.847Z,6.85
2023-08-24T23:05:11.012Z,7.90
2023-08-24T23:08:13.113Z,6.70
2023-08-24T23:11:18.541Z,7.97
2023-08-24T23:14:23.822Z,6.97
2023-08-24T23:17:26.927Z,7.20
2023-08-24T23:20:29.187Z,7.15
2023-08-24T23:23:31.284Z,7.40
2023-08-24T23:26:33.396Z,7.15
2023-08-24T23:29:35.982Z,7.07
2023-08-24T23:32:40.262Z,8.23
2023-08-24T23:35:44.802Z,7.70
2023-08-24T23:38:46.907Z,8.27
2023-08-24T23:41:48.948Z,8.07
2023-08-24T23:44:52.478Z,7.83
2023-08-24T23:47:54.774Z,7.68
2023-08-24T23:50:57.174Z,8.15
2023-08-24T23:53:59.182Z,8.13
2023-08-24T23:57:01.315Z,7.90
